sensor_id;sensor_type;location;lat;lon;timestamp;pressure;altitude;pressure_sealevel;temperature;humidity
76753;BME280;65687;51.308;16.916;2023-03-23T00:04:04;99058.23;;;8.54;77.47
76753;BME280;65687;51.308;16.916;2023-03-23T00:09:05;99050.11;;;8.54;77.24
76753;BME280;65687;51.308;16.916;2023-03-23T00:14:08;99047.57;;;8.54;76.81
76753;BME280;65687;51.308;16.916;2023-03-23T00:19:14;99043.45;;;8.49;76.80
76753;BME280;65687;51.308;16.916;2023-03-23T00:24:17;99044.31;;;8.46;77.09
76753;BME280;65687;51.308;16.916;2023-03-23T00:29:21;99040.17;;;8.40;78.09
76753;BME280;65687;51.308;16.916;2023-03-23T00:34:23;99040.83;;;8.42;77.58
76753;BME280;65687;51.308;16.916;2023-03-23T00:39:27;99039.42;;;8.36;77.99
76753;BME280;65687;51.308;16.916;2023-03-23T00:44:30;99035.59;;;8.17;78.34
76753;BME280;65687;51.308;16.916;2023-03-23T00:49:33;99030.41;;;8.15;78.00
76753;BME280;65687;51.308;16.916;2023-03-23T00:54:36;99031.84;;;8.17;78.08
76753;BME280;65687;51.308;16.916;2023-03-23T00:59:39;99030.08;;;8.15;78.28
76753;BME280;65687;51.308;16.916;2023-03-23T01:04:40;99025.09;;;8.13;78.40
76753;BME280;65687;51.308;16.916;2023-03-23T01:09:46;99027.14;;;8.17;78.27
76753;BME280;65687;51.308;16.916;2023-03-23T01:14:49;99018.20;;;8.22;78.16
76753;BME280;65687;51.308;16.916;2023-03-23T01:19:50;99016.08;;;8.28;77.90
76753;BME280;65687;51.308;16.916;2023-03-23T01:24:52;99015.77;;;8.23;78.34
76753;BME280;65687;51.308;16.916;2023-03-23T01:29:53;99016.11;;;8.21;78.48
76753;BME280;65687;51.308;16.916;2023-03-23T01:34:55;99010.88;;;8.12;78.53
76753;BME280;65687;51.308;16.916;2023-03-23T01:39:57;99009.10;;;8.02;78.83
76753;BME280;65687;51.308;16.916;2023-03-23T01:50:22;99005.36;;;8.04;78.33
76753;BME280;65687;51.308;16.916;2023-03-23T01:55:26;99000.08;;;8.03;78.38
76753;BME280;65687;51.308;16.916;2023-03-23T02:00:29;98998.30;;;8.01;78.59
76753;BME280;65687;51.308;16.916;2023-03-23T02:05:40;98987.63;;;7.95;78.89
76753;BME280;65687;51.308;16.916;2023-03-23T02:10:42;98979.74;;;7.95;78.98
76753;BME280;65687;51.308;16.916;2023-03-23T02:16:02;98970.29;;;8.03;78.47
76753;BME280;65687;51.308;16.916;2023-03-23T02:21:25;98969.40;;;8.10;78.55
76753;BME280;65687;51.308;16.916;2023-03-23T02:26:41;98968.30;;;8.17;78.32
76753;BME280;65687;51.308;16.916;2023-03-23T02:32:04;98962.27;;;8.26;78.04
76753;BME280;65687;51.308;16.916;2023-03-23T02:37:17;98955.73;;;8.24;77.87
76753;BME280;65687;51.308;16.916;2023-03-23T02:42:28;98957.63;;;8.30;77.27
76753;BME280;65687;51.308;16.916;2023-03-23T02:47:31;98959.36;;;8.28;77.88
76753;BME280;65687;51.308;16.916;2023-03-23T02:52:36;98959.95;;;8.24;78.24
76753;BME280;65687;51.308;16.916;2023-03-23T02:57:40;98959.27;;;8.24;78.02
76753;BME280;65687;51.308;16.916;2023-03-23T03:02:48;98958.23;;;8.26;77.95
76753;BME280;65687;51.308;16.916;2023-03-23T03:23:48;98935.52;;;8.48;76.43
76753;BME280;65687;51.308;16.916;2023-03-23T03:28:50;98934.42;;;8.46;76.46
76753;BME280;65687;51.308;16.916;2023-03-23T03:33:52;98938.14;;;8.47;76.41
76753;BME280;65687;51.308;16.916;2023-03-23T03:38:53;98936.98;;;8.47;76.70
76753;BME280;65687;51.308;16.916;2023-03-23T03:43:58;98939.77;;;8.48;77.25
76753;BME280;65687;51.308;16.916;2023-03-23T03:49:01;98927.90;;;8.47;76.59
76753;BME280;65687;51.308;16.916;2023-03-23T03:54:03;98927.09;;;8.51;76.56
76753;BME280;65687;51.308;16.916;2023-03-23T03:59:04;98917.27;;;8.59;76.11
76753;BME280;65687;51.308;16.916;2023-03-23T04:04:06;98920.16;;;8.62;76.15
76753;BME280;65687;51.308;16.916;2023-03-23T04:09:09;98925.27;;;8.69;75.87
76753;BME280;65687;51.308;16.916;2023-03-23T04:14:11;98927.59;;;8.68;76.38
76753;BME280;65687;51.308;16.916;2023-03-23T04:19:12;98923.65;;;8.73;76.04
76753;BME280;65687;51.308;16.916;2023-03-23T04:24:17;98921.55;;;8.77;75.69
76753;BME280;65687;51.308;16.916;2023-03-23T04:29:22;98918.02;;;8.83;75.36
76753;BME280;65687;51.308;16.916;2023-03-23T04:34:23;98917.09;;;8.79;75.46
76753;BME280;65687;51.308;16.916;2023-03-23T04:39:25;98917.52;;;8.77;75.13
76753;BME280;65687;51.308;16.916;2023-03-23T04:44:30;98910.16;;;8.78;74.69
76753;BME280;65687;51.308;16.916;2023-03-23T04:49:34;98906.66;;;8.82;74.84
76753;BME280;65687;51.308;16.916;2023-03-23T04:54:36;98903.75;;;8.93;74.40
76753;BME280;65687;51.308;16.916;2023-03-23T04:59:39;98905.71;;;9.01;74.32
76753;BME280;65687;51.308;16.916;2023-03-23T05:04:42;98905.46;;;9.02;74.21
76753;BME280;65687;51.308;16.916;2023-03-23T05:09:46;98906.50;;;9.03;74.23
76753;BME280;65687;51.308;16.916;2023-03-23T05:14:49;98897.27;;;9.03;74.11
76753;BME280;65687;51.308;16.916;2023-03-23T05:19:51;98902.02;;;9.01;74.26
76753;BME280;65687;51.308;16.916;2023-03-23T05:24:52;98906.38;;;9.07;73.86
76753;BME280;65687;51.308;16.916;2023-03-23T05:29:54;98907.89;;;9.19;73.17
76753;BME280;65687;51.308;16.916;2023-03-23T05:34:56;98905.74;;;9.23;73.76
76753;BME280;65687;51.308;16.916;2023-03-23T05:39:58;98904.96;;;9.24;73.18
76753;BME280;65687;51.308;16.916;2023-03-23T05:45:09;98900.40;;;9.23;73.50
76753;BME280;65687;51.308;16.916;2023-03-23T05:50:12;98900.59;;;9.24;72.90
76753;BME280;65687;51.308;16.916;2023-03-23T05:55:13;98897.16;;;9.32;72.46
76753;BME280;65687;51.308;16.916;2023-03-23T06:00:16;98898.01;;;9.44;72.11
76753;BME280;65687;51.308;16.916;2023-03-23T06:05:21;98891.69;;;9.58;71.85
76753;BME280;65687;51.308;16.916;2023-03-23T06:10:23;98887.85;;;9.72;71.75
76753;BME280;65687;51.308;16.916;2023-03-23T06:15:24;98887.67;;;9.81;72.37
76753;BME280;65687;51.308;16.916;2023-03-23T06:20:30;98882.66;;;9.91;70.93
76753;BME280;65687;51.308;16.916;2023-03-23T06:25:32;98884.04;;;10.02;70.55
76753;BME280;65687;51.308;16.916;2023-03-23T06:30:34;98880.11;;;10.11;70.23
76753;BME280;65687;51.308;16.916;2023-03-23T06:35:37;98871.75;;;10.25;69.52
76753;BME280;65687;51.308;16.916;2023-03-23T06:40:38;98874.60;;;10.41;69.10
76753;BME280;65687;51.308;16.916;2023-03-23T06:45:40;98869.37;;;10.62;68.79
76753;BME280;65687;51.308;16.916;2023-03-23T06:50:45;98863.32;;;10.79;68.00
76753;BME280;65687;51.308;16.916;2023-03-23T06:55:47;98868.05;;;11.00;67.25
76753;BME280;65687;51.308;16.916;2023-03-23T07:00:54;98866.83;;;11.18;66.68
76753;BME280;65687;51.308;16.916;2023-03-23T07:05:57;98870.00;;;11.31;66.58
76753;BME280;65687;51.308;16.916;2023-03-23T07:11:00;98868.02;;;11.40;65.95
76753;BME280;65687;51.308;16.916;2023-03-23T07:16:05;98879.82;;;11.46;65.62
76753;BME280;65687;51.308;16.916;2023-03-23T07:21:07;98879.16;;;11.54;65.81
76753;BME280;65687;51.308;16.916;2023-03-23T07:26:08;98875.95;;;11.62;65.92
76753;BME280;65687;51.308;16.916;2023-03-23T07:31:10;98871.17;;;11.68;65.66
76753;BME280;65687;51.308;16.916;2023-03-23T07:36:11;98866.54;;;11.77;65.74
76753;BME280;65687;51.308;16.916;2023-03-23T07:41:13;98860.66;;;11.89;65.89
76753;BME280;65687;51.308;16.916;2023-03-23T07:46:15;98851.85;;;11.97;65.76
76753;BME280;65687;51.308;16.916;2023-03-23T07:51:17;98851.04;;;12.06;65.57
76753;BME280;65687;51.308;16.916;2023-03-23T07:56:18;98852.95;;;12.18;65.35
76753;BME280;65687;51.308;16.916;2023-03-23T08:01:20;98853.63;;;12.34;64.66
76753;BME280;65687;51.308;16.916;2023-03-23T08:06:23;98850.98;;;12.52;64.17
76753;BME280;65687;51.308;16.916;2023-03-23T08:11:25;98847.44;;;12.77;64.02
76753;BME280;65687;51.308;16.916;2023-03-23T08:16:27;98841.39;;;13.08;62.77
76753;BME280;65687;51.308;16.916;2023-03-23T08:21:28;98830.20;;;13.34;62.64
76753;BME280;65687;51.308;16.916;2023-03-23T08:26:31;98827.88;;;13.58;61.42
76753;BME280;65687;51.308;16.916;2023-03-23T08:31:32;98833.77;;;13.99;60.97
76753;BME280;65687;51.308;16.916;2023-03-23T08:36:36;98843.72;;;14.51;59.80
76753;BME280;65687;51.308;16.916;2023-03-23T08:41:39;98844.28;;;14.93;57.98
76753;BME280;65687;51.308;16.916;2023-03-23T08:46:40;98844.60;;;15.26;56.92
76753;BME280;65687;51.308;16.916;2023-03-23T08:51:42;98838.87;;;15.55;56.71
76753;BME280;65687;51.308;16.916;2023-03-23T08:56:44;98839.31;;;15.47;55.35
76753;BME280;65687;51.308;16.916;2023-03-23T09:01:46;98833.38;;;15.31;55.79
76753;BME280;65687;51.308;16.916;2023-03-23T09:06:48;98827.04;;;15.24;55.19
76753;BME280;65687;51.308;16.916;2023-03-23T09:11:52;98839.27;;;15.23;56.18
76753;BME280;65687;51.308;16.916;2023-03-23T09:16:54;98838.37;;;15.22;56.08
76753;BME280;65687;51.308;16.916;2023-03-23T09:21:56;98843.02;;;15.29;56.44
76753;BME280;65687;51.308;16.916;2023-03-23T09:26:57;98846.10;;;15.36;55.68
76753;BME280;65687;51.308;16.916;2023-03-23T09:31:59;98847.78;;;15.40;56.07
76753;BME280;65687;51.308;16.916;2023-03-23T09:37:01;98851.15;;;15.73;55.22
76753;BME280;65687;51.308;16.916;2023-03-23T09:42:20;98846.61;;;15.87;54.11
76753;BME280;65687;51.308;16.916;2023-03-23T09:47:33;98863.93;;;15.80;53.05
76753;BME280;65687;51.308;16.916;2023-03-23T09:52:55;98866.11;;;15.66;52.31
76753;BME280;65687;51.308;16.916;2023-03-23T10:03:41;98869.11;;;15.59;52.08
76753;BME280;65687;51.308;16.916;2023-03-23T10:08:52;98857.02;;;15.59;52.78
76753;BME280;65687;51.308;16.916;2023-03-23T10:14:19;98859.77;;;15.60;53.15
76753;BME280;65687;51.308;16.916;2023-03-23T10:19:55;98871.31;;;15.64;53.11
76753;BME280;65687;51.308;16.916;2023-03-23T10:25:05;98876.46;;;15.66;52.42
76753;BME280;65687;51.308;16.916;2023-03-23T10:35:18;98884.59;;;15.63;51.54
76753;BME280;65687;51.308;16.916;2023-03-23T10:40:24;98893.36;;;15.61;51.16
76753;BME280;65687;51.308;16.916;2023-03-23T10:45:29;98897.17;;;15.58;51.67
76753;BME280;65687;51.308;16.916;2023-03-23T10:50:35;98893.10;;;15.58;51.34
76753;BME280;65687;51.308;16.916;2023-03-23T10:55:40;98885.86;;;15.61;51.11
76753;BME280;65687;51.308;16.916;2023-03-23T11:00:46;98883.80;;;15.66;51.01
76753;BME280;65687;51.308;16.916;2023-03-23T11:06:03;98890.16;;;15.80;51.11
76753;BME280;65687;51.308;16.916;2023-03-23T11:11:17;98888.77;;;15.91;50.77
76753;BME280;65687;51.308;16.916;2023-03-23T11:16:31;98889.58;;;16.07;50.73
76753;BME280;65687;51.308;16.916;2023-03-23T11:21:33;98896.31;;;16.11;50.49
76753;BME280;65687;51.308;16.916;2023-03-23T11:26:35;98905.02;;;16.11;50.16
76753;BME280;65687;51.308;16.916;2023-03-23T11:31:41;98908.27;;;16.06;50.44
76753;BME280;65687;51.308;16.916;2023-03-23T11:42:45;98913.91;;;15.94;50.77
76753;BME280;65687;51.308;16.916;2023-03-23T11:58:28;98912.52;;;15.76;51.27
76753;BME280;65687;51.308;16.916;2023-03-23T12:03:47;98914.77;;;15.71;50.94
76753;BME280;65687;51.308;16.916;2023-03-23T12:20:01;98913.50;;;15.81;51.30
76753;BME280;65687;51.308;16.916;2023-03-23T12:41:01;98913.06;;;16.06;51.58
76753;BME280;65687;51.308;16.916;2023-03-23T12:57:07;98918.12;;;15.99;52.12
76753;BME280;65687;51.308;16.916;2023-03-23T13:02:28;98910.48;;;15.93;52.05
76753;BME280;65687;51.308;16.916;2023-03-23T13:07:47;98913.46;;;15.91;52.29
76753;BME280;65687;51.308;16.916;2023-03-23T13:12:51;98908.31;;;15.89;52.53
76753;BME280;65687;51.308;16.916;2023-03-23T13:17:56;98909.48;;;15.89;52.70
76753;BME280;65687;51.308;16.916;2023-03-23T13:23:19;98912.59;;;15.91;52.73
76753;BME280;65687;51.308;16.916;2023-03-23T13:28:27;98907.11;;;15.89;53.16
76753;BME280;65687;51.308;16.916;2023-03-23T13:33:35;98907.73;;;15.87;53.41
76753;BME280;65687;51.308;16.916;2023-03-23T13:38:38;98910.81;;;15.82;53.50
76753;BME280;65687;51.308;16.916;2023-03-23T13:43:41;98902.14;;;15.76;53.39
76753;BME280;65687;51.308;16.916;2023-03-23T13:48:50;98905.91;;;15.71;53.60
76753;BME280;65687;51.308;16.916;2023-03-23T13:54:06;98913.38;;;15.64;53.75
76753;BME280;65687;51.308;16.916;2023-03-23T14:04:30;98897.14;;;15.52;54.24
76753;BME280;65687;51.308;16.916;2023-03-23T14:09:38;98901.09;;;15.48;54.83
76753;BME280;65687;51.308;16.916;2023-03-23T14:14:44;98904.50;;;15.48;55.14
76753;BME280;65687;51.308;16.916;2023-03-23T14:19:52;98902.63;;;15.48;54.92
76753;BME280;65687;51.308;16.916;2023-03-23T14:25:11;98902.64;;;15.49;55.21
76753;BME280;65687;51.308;16.916;2023-03-23T14:30:23;98898.86;;;15.53;55.11
76753;BME280;65687;51.308;16.916;2023-03-23T14:35:29;98895.75;;;15.56;54.85
76753;BME280;65687;51.308;16.916;2023-03-23T14:40:31;98895.13;;;15.58;54.80
76753;BME280;65687;51.308;16.916;2023-03-23T14:45:35;98899.66;;;15.56;55.35
76753;BME280;65687;51.308;16.916;2023-03-23T14:50:40;98898.18;;;15.52;55.35
76753;BME280;65687;51.308;16.916;2023-03-23T14:55:43;98899.59;;;15.50;55.38
76753;BME280;65687;51.308;16.916;2023-03-23T15:05:59;98893.63;;;15.54;55.68
76753;BME280;65687;51.308;16.916;2023-03-23T15:16:22;98875.28;;;15.60;55.07
76753;BME280;65687;51.308;16.916;2023-03-23T15:21:26;98876.30;;;15.60;55.11
76753;BME280;65687;51.308;16.916;2023-03-23T15:26:34;98871.71;;;15.55;55.20
76753;BME280;65687;51.308;16.916;2023-03-23T15:31:47;98869.48;;;15.50;55.84
76753;BME280;65687;51.308;16.916;2023-03-23T15:36:59;98859.17;;;15.46;56.03
76753;BME280;65687;51.308;16.916;2023-03-23T15:42:04;98859.64;;;15.39;56.45
76753;BME280;65687;51.308;16.916;2023-03-23T15:47:16;98868.16;;;15.34;56.81
76753;BME280;65687;51.308;16.916;2023-03-23T15:52:17;98867.34;;;15.29;57.46
76753;BME280;65687;51.308;16.916;2023-03-23T15:57:19;98867.15;;;15.23;57.46
76753;BME280;65687;51.308;16.916;2023-03-23T16:02:22;98872.60;;;15.18;57.77
76753;BME280;65687;51.308;16.916;2023-03-23T16:07:25;98874.50;;;15.14;58.08
76753;BME280;65687;51.308;16.916;2023-03-23T16:12:26;98881.48;;;15.09;58.15
76753;BME280;65687;51.308;16.916;2023-03-23T16:17:28;98881.48;;;15.03;58.32
76753;BME280;65687;51.308;16.916;2023-03-23T16:22:30;98880.97;;;14.97;58.73
76753;BME280;65687;51.308;16.916;2023-03-23T16:27:31;98885.57;;;14.92;58.76
76753;BME280;65687;51.308;16.916;2023-03-23T16:32:33;98891.37;;;14.88;59.20
76753;BME280;65687;51.308;16.916;2023-03-23T16:37:35;98897.64;;;14.82;59.51
76753;BME280;65687;51.308;16.916;2023-03-23T16:42:37;98892.52;;;14.76;59.65
76753;BME280;65687;51.308;16.916;2023-03-23T16:47:39;98896.25;;;14.72;59.83
76753;BME280;65687;51.308;16.916;2023-03-23T16:52:43;98908.52;;;14.67;60.04
76753;BME280;65687;51.308;16.916;2023-03-23T16:57:45;98912.60;;;14.62;60.25
76753;BME280;65687;51.308;16.916;2023-03-23T17:02:48;98920.65;;;14.59;60.43
76753;BME280;65687;51.308;16.916;2023-03-23T17:07:52;98919.61;;;14.53;60.72
76753;BME280;65687;51.308;16.916;2023-03-23T17:12:57;98922.14;;;14.48;61.08
76753;BME280;65687;51.308;16.916;2023-03-23T17:17:59;98911.40;;;14.42;61.17
76753;BME280;65687;51.308;16.916;2023-03-23T17:23:02;98911.40;;;14.38;61.44
76753;BME280;65687;51.308;16.916;2023-03-23T17:28:04;98913.75;;;14.33;61.70
76753;BME280;65687;51.308;16.916;2023-03-23T17:33:05;98913.58;;;14.28;61.95
76753;BME280;65687;51.308;16.916;2023-03-23T17:38:07;98920.92;;;14.24;61.94
76753;BME280;65687;51.308;16.916;2023-03-23T17:43:08;98927.27;;;14.21;62.22
76753;BME280;65687;51.308;16.916;2023-03-23T17:48:10;98931.50;;;14.16;62.32
76753;BME280;65687;51.308;16.916;2023-03-23T17:53:11;98937.29;;;14.12;62.69
76753;BME280;65687;51.308;16.916;2023-03-23T17:58:13;98941.33;;;14.06;63.15
76753;BME280;65687;51.308;16.916;2023-03-23T18:03:15;98954.66;;;13.99;63.58
76753;BME280;65687;51.308;16.916;2023-03-23T18:08:17;98956.25;;;13.97;63.66
76753;BME280;65687;51.308;16.916;2023-03-23T18:13:19;98947.45;;;13.93;64.15
76753;BME280;65687;51.308;16.916;2023-03-23T18:18:21;98945.95;;;13.89;64.20
76753;BME280;65687;51.308;16.916;2023-03-23T18:23:23;98948.13;;;13.88;64.15
76753;BME280;65687;51.308;16.916;2023-03-23T18:28:25;98957.79;;;13.88;64.08
76753;BME280;65687;51.308;16.916;2023-03-23T18:33:26;98967.42;;;13.87;64.04
76753;BME280;65687;51.308;16.916;2023-03-23T18:38:28;98970.27;;;13.86;63.96
76753;BME280;65687;51.308;16.916;2023-03-23T18:43:30;98970.77;;;13.85;64.01
76753;BME280;65687;51.308;16.916;2023-03-23T18:48:31;98981.05;;;13.83;64.20
76753;BME280;65687;51.308;16.916;2023-03-23T18:53:33;98994.48;;;13.79;64.37
76753;BME280;65687;51.308;16.916;2023-03-23T18:58:35;98993.48;;;13.75;64.83
76753;BME280;65687;51.308;16.916;2023-03-23T19:03:38;98997.02;;;13.62;65.84
76753;BME280;65687;51.308;16.916;2023-03-23T19:08:40;98985.86;;;13.54;66.15
76753;BME280;65687;51.308;16.916;2023-03-23T19:13:42;98978.16;;;13.44;66.53
76753;BME280;65687;51.308;16.916;2023-03-23T19:18:43;98974.77;;;13.44;66.80
76753;BME280;65687;51.308;16.916;2023-03-23T19:23:45;98985.51;;;13.37;67.30
76753;BME280;65687;51.308;16.916;2023-03-23T19:28:47;98990.44;;;13.29;67.85
76753;BME280;65687;51.308;16.916;2023-03-23T19:33:49;98999.23;;;13.09;68.52
76753;BME280;65687;51.308;16.916;2023-03-23T19:38:51;99002.27;;;12.96;68.64
76753;BME280;65687;51.308;16.916;2023-03-23T19:43:55;98988.07;;;12.85;68.94
76753;BME280;65687;51.308;16.916;2023-03-23T19:48:59;98976.59;;;12.78;68.99
76753;BME280;65687;51.308;16.916;2023-03-23T19:54:01;98977.89;;;12.77;69.27
76753;BME280;65687;51.308;16.916;2023-03-23T19:59:03;98983.61;;;12.80;69.34
76753;BME280;65687;51.308;16.916;2023-03-23T20:04:05;98990.92;;;12.81;69.42
76753;BME280;65687;51.308;16.916;2023-03-23T20:09:07;99000.60;;;12.81;69.37
76753;BME280;65687;51.308;16.916;2023-03-23T20:14:09;99002.31;;;12.85;69.28
76753;BME280;65687;51.308;16.916;2023-03-23T20:19:10;99011.55;;;12.87;69.16
76753;BME280;65687;51.308;16.916;2023-03-23T20:24:15;99012.69;;;12.90;68.87
76753;BME280;65687;51.308;16.916;2023-03-23T20:29:16;99022.17;;;12.86;68.99
76753;BME280;65687;51.308;16.916;2023-03-23T20:34:18;99025.02;;;12.81;69.40
76753;BME280;65687;51.308;16.916;2023-03-23T20:39:30;99015.13;;;12.64;69.76
76753;BME280;65687;51.308;16.916;2023-03-23T20:44:33;99008.33;;;12.44;69.82
76753;BME280;65687;51.308;16.916;2023-03-23T20:49:37;99008.72;;;12.26;69.92
76753;BME280;65687;51.308;16.916;2023-03-23T20:54:39;99011.86;;;12.25;70.27
76753;BME280;65687;51.308;16.916;2023-03-23T20:59:41;99016.31;;;12.22;70.22
76753;BME280;65687;51.308;16.916;2023-03-23T21:04:43;99022.50;;;12.17;70.69
76753;BME280;65687;51.308;16.916;2023-03-23T21:09:45;99023.48;;;12.02;70.68
76753;BME280;65687;51.308;16.916;2023-03-23T21:14:47;99024.18;;;11.80;70.81
76753;BME280;65687;51.308;16.916;2023-03-23T21:19:48;99023.89;;;11.53;71.40
76753;BME280;65687;51.308;16.916;2023-03-23T21:24:50;99026.81;;;11.34;71.70
76753;BME280;65687;51.308;16.916;2023-03-23T21:29:55;99030.83;;;10.95;72.18
76753;BME280;65687;51.308;16.916;2023-03-23T21:34:57;99036.33;;;10.70;72.93
76753;BME280;65687;51.308;16.916;2023-03-23T21:40:06;99035.84;;;10.64;72.90
76753;BME280;65687;51.308;16.916;2023-03-23T21:45:15;99035.60;;;10.63;73.17
76753;BME280;65687;51.308;16.916;2023-03-23T21:50:21;99035.75;;;10.72;72.91
76753;BME280;65687;51.308;16.916;2023-03-23T21:55:24;99026.97;;;10.69;72.91
76753;BME280;65687;51.308;16.916;2023-03-23T22:00:29;99022.33;;;10.45;73.46
76753;BME280;65687;51.308;16.916;2023-03-23T22:05:31;99021.44;;;10.28;73.53
76753;BME280;65687;51.308;16.916;2023-03-23T22:10:33;99013.64;;;10.09;73.84
76753;BME280;65687;51.308;16.916;2023-03-23T22:15:35;99011.75;;;9.99;74.00
76753;BME280;65687;51.308;16.916;2023-03-23T22:20:36;99007.18;;;9.95;74.65
76753;BME280;65687;51.308;16.916;2023-03-23T22:25:40;99011.59;;;9.80;74.91
76753;BME280;65687;51.308;16.916;2023-03-23T22:30:42;99019.42;;;9.79;75.26
76753;BME280;65687;51.308;16.916;2023-03-23T22:35:43;99022.61;;;9.76;74.89
76753;BME280;65687;51.308;16.916;2023-03-23T22:40:53;99024.41;;;9.62;75.36
76753;BME280;65687;51.308;16.916;2023-03-23T22:45:55;99024.52;;;9.61;75.44
76753;BME280;65687;51.308;16.916;2023-03-23T22:50:57;99019.39;;;9.60;75.71
76753;BME280;65687;51.308;16.916;2023-03-23T22:55:58;99014.73;;;9.52;75.78
76753;BME280;65687;51.308;16.916;2023-03-23T23:01:02;99018.05;;;9.45;75.83
76753;BME280;65687;51.308;16.916;2023-03-23T23:06:05;99014.04;;;9.37;75.74
76753;BME280;65687;51.308;16.916;2023-03-23T23:11:09;99011.23;;;9.26;75.68
76753;BME280;65687;51.308;16.916;2023-03-23T23:16:13;99010.59;;;9.23;76.15
76753;BME280;65687;51.308;16.916;2023-03-23T23:21:20;99010.70;;;9.22;76.26
76753;BME280;65687;51.308;16.916;2023-03-23T23:26:22;99004.31;;;9.20;76.62
76753;BME280;65687;51.308;16.916;2023-03-23T23:31:26;99002.02;;;9.01;76.71
76753;BME280;65687;51.308;16.916;2023-03-23T23:36:29;99003.16;;;9.00;76.98
76753;BME280;65687;51.308;16.916;2023-03-23T23:41:33;98993.20;;;9.16;76.99
76753;BME280;65687;51.308;16.916;2023-03-23T23:46:35;98992.48;;;9.25;77.21
76753;BME280;65687;51.308;16.916;2023-03-23T23:51:37;98986.02;;;9.33;77.16
76753;BME280;65687;51.308;16.916;2023-03-23T23:56:38;98983.80;;;9.35;77.38
